Time;durP1;ratioP1;P1;durP2;ratioP2;P2;SDS_P1;SDS_P2;PMS_P1;PMS_P2;Temp;Humidity;BMP_temperature;BMP_pressure;BME280_temperature;BME280_humidity;BME280_pressure;Samples;Min_cycle;Max_cycle;Signal;HPM_P1;HPM_P2
2022/04/05 00:02:19;;;;;;;12.13;11.03;;;5.60;99.90;;;;;;4961428;28;20191;-76
2022/04/05 00:04:47;;;;;;;12.27;11.27;;;5.60;99.90;;;;;;4967603;28;20300;-75
2022/04/05 00:07:14;;;;;;;12.97;11.47;;;5.60;99.90;;;;;;4959402;28;20684;-76
2022/04/05 00:09:41;;;;;;;13.17;11.87;;;5.50;99.90;;;;;;4969696;28;20810;-76
2022/04/05 00:12:08;;;;;;;11.60;10.60;;;5.60;99.90;;;;;;4968285;28;20206;-76
2022/04/05 00:14:35;;;;;;;12.60;11.37;;;5.60;99.90;;;;;;4960124;28;20220;-76
2022/04/05 00:17:03;;;;;;;12.70;11.40;;;5.60;99.90;;;;;;4967238;28;20198;-76
2022/04/05 00:20:15;;;;;;;12.20;11.00;;;5.60;99.90;;;;;;4969851;28;20671;-76
2022/04/05 00:22:41;;;;;;;12.40;11.27;;;5.60;99.90;;;;;;4953751;28;20549;-76
2022/04/05 00:25:09;;;;;;;12.57;11.47;;;5.60;99.90;;;;;;4964536;28;20219;-76
2022/04/05 00:27:36;;;;;;;12.23;11.03;;;5.60;99.90;;;;;;4968764;28;20201;-76
2022/04/05 00:30:04;;;;;;;12.57;11.47;;;5.60;99.90;;;;;;4970632;28;20297;-76
2022/04/05 00:32:30;;;;;;;12.10;11.10;;;5.60;99.90;;;;;;4966521;28;20209;-76
2022/04/05 00:34:57;;;;;;;12.33;11.13;;;5.70;99.90;;;;;;4969426;28;20236;-76
2022/04/05 00:37:26;;;;;;;12.47;11.37;;;5.70;99.90;;;;;;4971753;28;20289;-76
2022/04/05 00:39:53;;;;;;;12.60;11.40;;;5.70;99.90;;;;;;4965245;28;20194;-76
2022/04/05 00:42:19;;;;;;;12.57;11.40;;;5.60;99.90;;;;;;4963132;28;20206;-76
2022/04/05 00:44:46;;;;;;;12.50;11.30;;;5.60;99.90;;;;;;5012397;23;20235;-75
2022/04/05 00:47:18;;;;;;;12.63;11.33;;;5.70;99.90;;;;;;5018200;28;20193;-76
2022/04/05 00:49:46;;;;;;;11.50;10.40;;;5.70;99.90;;;;;;5022549;28;20197;-75
2022/04/05 00:52:15;;;;;;;12.70;11.60;;;5.70;99.90;;;;;;5018792;28;20201;-76
2022/04/05 00:54:46;;;;;;;12.83;11.50;;;5.70;99.90;;;;;;5016740;28;20693;-75
2022/04/05 00:57:15;;;;;;;12.70;11.50;;;5.70;99.90;;;;;;5000166;28;20737;-76
2022/04/05 00:59:43;;;;;;;12.23;11.03;;;5.70;99.90;;;;;;5005714;28;20630;-77
2022/04/05 01:02:12;;;;;;;11.97;10.57;;;5.70;99.90;;;;;;5003540;28;20207;-77
2022/04/05 01:04:41;;;;;;;11.93;10.90;;;5.70;99.90;;;;;;4993635;28;20248;-76
2022/04/05 01:07:11;;;;;;;13.67;11.23;;;5.70;99.90;;;;;;5001026;28;20200;-77
2022/04/05 01:09:38;;;;;;;11.43;10.43;;;5.70;99.90;;;;;;5003293;28;20229;-75
2022/04/05 01:12:08;;;;;;;12.07;10.97;;;5.70;99.90;;;;;;5002589;28;20232;-77
2022/04/05 01:14:36;;;;;;;12.40;11.00;;;5.70;99.90;;;;;;5002249;28;20221;-75
2022/04/05 01:17:04;;;;;;;10.70;9.80;;;5.70;99.90;;;;;;5001493;28;20262;-74
2022/04/05 01:19:31;;;;;;;12.17;11.07;;;5.70;99.90;;;;;;5005644;28;20217;-75
2022/04/05 01:21:59;;;;;;;11.43;10.43;;;5.70;99.90;;;;;;5005649;28;20243;-76
2022/04/05 01:24:27;;;;;;;12.27;11.17;;;5.70;99.90;;;;;;4999628;28;20217;-78
2022/04/05 01:26:55;;;;;;;11.87;10.77;;;5.70;99.90;;;;;;5002967;28;20275;-77
2022/04/05 01:29:24;;;;;;;10.70;9.80;;;5.70;99.90;;;;;;5003983;28;20200;-75
2022/04/05 01:31:53;;;;;;;11.40;10.40;;;5.70;99.90;;;;;;5002617;28;20193;-77
2022/04/05 01:34:21;;;;;;;11.47;10.47;;;5.70;99.90;;;;;;5004330;28;20714;-75
2022/04/05 01:36:50;;;;;;;11.47;10.47;;;5.80;99.90;;;;;;4999347;28;20220;-78
2022/04/05 01:39:20;;;;;;;11.23;10.27;;;5.80;99.90;;;;;;4997254;28;20197;-75
2022/04/05 01:41:52;;;;;;;9.00;8.20;;;5.80;99.90;;;;;;5000573;28;20224;-75
2022/04/05 01:44:19;;;;;;;11.60;10.40;;;5.70;99.90;;;;;;4997185;28;20230;-78
2022/04/05 01:46:46;;;;;;;11.10;10.10;;;5.80;99.90;;;;;;5003615;28;20197;-77
2022/04/05 01:49:14;;;;;;;10.77;9.83;;;5.70;99.90;;;;;;5002100;28;20251;-77
2022/04/05 01:51:42;;;;;;;11.83;10.77;;;5.80;99.90;;;;;;5000395;28;20208;-75
2022/04/05 01:54:10;;;;;;;11.20;10.20;;;5.80;99.90;;;;;;5004657;28;20307;-75
2022/04/05 01:56:43;;;;;;;11.20;10.20;;;5.80;99.90;;;;;;4990886;28;20208;-75
2022/04/05 01:59:12;;;;;;;11.33;10.33;;;5.80;99.90;;;;;;4998081;28;20225;-75
2022/04/05 02:01:39;;;;;;;10.70;9.80;;;5.80;99.90;;;;;;5000412;28;20193;-75
2022/04/05 02:04:06;;;;;;;11.23;10.10;;;5.80;99.90;;;;;;5000521;28;20228;-76
2022/04/05 02:06:35;;;;;;;12.07;10.93;;;5.70;99.90;;;;;;4999521;28;20627;-77
2022/04/05 02:09:02;;;;;;;11.80;10.80;;;5.80;99.90;;;;;;4998132;28;20197;-77
2022/04/05 02:11:30;;;;;;;12.20;10.50;;;5.80;99.90;;;;;;5000869;28;20207;-77
2022/04/05 02:14:02;;;;;;;12.03;10.87;;;5.80;99.90;;;;;;5000381;28;20252;-77
2022/04/05 02:16:32;;;;;;;11.47;10.47;;;5.70;99.90;;;;;;5000761;28;20221;-75
2022/04/05 02:19:01;;;;;;;10.83;9.80;;;5.70;99.90;;;;;;5000433;28;20216;-77
2022/04/05 02:21:29;;;;;;;10.77;9.80;;;5.80;99.90;;;;;;5000808;28;20228;-75
2022/04/05 02:23:57;;;;;;;11.50;10.43;;;5.70;99.90;;;;;;5000644;28;20558;-75
2022/04/05 02:26:30;;;;;;;12.13;11.00;;;5.70;99.90;;;;;;4996983;28;20205;-75
2022/04/05 02:28:57;;;;;;;12.40;11.03;;;5.80;99.90;;;;;;4998652;28;20197;-75
2022/04/05 02:31:28;;;;;;;11.47;10.47;;;5.80;99.90;;;;;;5000294;28;20217;-75
2022/04/05 02:33:58;;;;;;;11.10;10.13;;;5.80;99.90;;;;;;5000240;28;20189;-75
2022/04/05 02:36:36;;;;;;;12.93;10.90;;;5.80;99.90;;;;;;4999525;28;20221;-75
2022/04/05 02:39:07;;;;;;;11.70;10.60;;;5.70;99.90;;;;;;4999958;28;20556;-75
2022/04/05 02:41:35;;;;;;;11.80;10.70;;;5.70;99.90;;;;;;5003898;28;20561;-75
2022/04/05 02:44:02;;;;;;;12.10;11.00;;;5.70;99.90;;;;;;5001603;28;20228;-78
2022/04/05 02:46:29;;;;;;;12.53;11.33;;;5.70;99.90;;;;;;4987533;28;20256;-79
2022/04/05 02:48:59;;;;;;;11.60;10.60;;;5.80;99.90;;;;;;4996492;28;20194;-78
2022/04/05 02:51:33;;;;;;;12.03;11.00;;;5.70;99.90;;;;;;4987562;28;20216;-76
2022/04/05 02:54:05;;;;;;;12.40;11.13;;;5.80;99.90;;;;;;4987109;28;20706;-78
2022/04/05 02:56:35;;;;;;;12.00;10.90;;;5.70;99.90;;;;;;4988306;28;20217;-77
2022/04/05 02:59:02;;;;;;;12.03;10.83;;;5.70;99.90;;;;;;4987350;28;20578;-76
2022/04/05 03:01:30;;;;;;;11.53;10.37;;;5.80;99.90;;;;;;4989948;28;20206;-76
2022/04/05 03:04:03;;;;;;;12.20;10.93;;;5.80;99.90;;;;;;4998109;28;20681;-76
2022/04/05 03:06:30;;;;;;;12.33;11.23;;;5.80;99.90;;;;;;4987295;28;20204;-75
2022/04/05 03:08:58;;;;;;;11.50;10.50;;;5.80;99.90;;;;;;4991903;28;20752;-78
2022/04/05 03:11:26;;;;;;;12.43;11.27;;;5.80;99.90;;;;;;4989556;28;20234;-76
2022/04/05 03:13:55;;;;;;;11.87;10.70;;;5.80;99.90;;;;;;4992436;28;20267;-77
2022/04/05 03:16:22;;;;;;;11.73;10.73;;;5.80;99.90;;;;;;4994658;28;20221;-77
2022/04/05 03:18:53;;;;;;;12.13;11.10;;;5.80;99.90;;;;;;5001004;28;20193;-78
2022/04/05 03:21:22;;;;;;;12.47;11.47;;;5.80;99.90;;;;;;4999832;28;20280;-77
2022/04/05 03:23:48;;;;;;;11.97;10.77;;;5.80;99.90;;;;;;5003276;28;20251;-78
2022/04/05 03:26:16;;;;;;;12.17;11.00;;;5.70;99.90;;;;;;5001882;28;20193;-77
2022/04/05 03:28:44;;;;;;;11.67;10.67;;;5.80;99.90;;;;;;4999763;28;20651;-81
2022/04/05 03:31:11;;;;;;;12.07;11.03;;;5.80;99.90;;;;;;4995383;28;20255;-80
2022/04/05 03:33:39;;;;;;;12.20;11.10;;;5.80;99.90;;;;;;4993837;28;20223;-83
2022/04/05 03:36:10;;;;;;;11.97;10.87;;;5.70;99.90;;;;;;4994865;28;20247;-83
2022/04/05 03:38:39;;;;;;;13.33;11.97;;;5.70;99.90;;;;;;5005069;28;20197;-81
2022/04/05 03:41:06;;;;;;;12.60;11.40;;;5.70;99.90;;;;;;4999240;28;20289;-82
2022/04/05 03:43:33;;;;;;;12.43;11.23;;;5.70;99.90;;;;;;4999204;28;20292;-82
2022/04/05 03:46:03;;;;;;;13.00;11.80;;;5.70;99.90;;;;;;5005053;28;20252;-81
2022/04/05 03:48:32;;;;;;;11.87;10.77;;;5.70;99.90;;;;;;5004656;28;20193;-81
2022/04/05 03:51:09;;;;;;;12.70;11.50;;;5.70;99.90;;;;;;5004450;28;20264;-83
2022/04/05 03:53:38;;;;;;;11.97;10.77;;;5.80;99.90;;;;;;5001829;28;20605;-80
2022/04/05 03:56:12;;;;;;;20.27;11.97;;;5.80;99.90;;;;;;5003253;28;20220;-82
2022/04/05 03:58:42;;;;;;;12.57;11.37;;;5.70;99.90;;;;;;5002187;28;20216;-83
2022/04/05 04:01:08;;;;;;;12.07;11.07;;;5.70;99.90;;;;;;4986447;28;20210;-83
2022/04/05 04:03:35;;;;;;;12.67;11.47;;;5.70;99.90;;;;;;5001467;28;20202;-80
2022/04/05 04:06:03;;;;;;;10.83;9.93;;;5.70;99.90;;;;;;5004796;28;20239;-79
2022/04/05 04:08:30;;;;;;;11.43;10.43;;;5.70;99.90;;;;;;5000058;28;20209;-78
2022/04/05 04:10:58;;;;;;;11.33;10.33;;;5.70;99.90;;;;;;5007221;28;20669;-77
2022/04/05 04:13:28;;;;;;;11.80;10.70;;;5.70;99.90;;;;;;5002797;28;20228;-78
2022/04/05 04:15:57;;;;;;;12.07;10.97;;;5.70;99.90;;;;;;5001488;28;20217;-78
2022/04/05 04:18:25;;;;;;;12.10;11.00;;;5.70;99.90;;;;;;5002242;28;20227;-77
2022/04/05 04:20:54;;;;;;;11.80;10.70;;;5.80;99.90;;;;;;5002052;28;20628;-79
2022/04/05 04:23:22;;;;;;;11.30;10.13;;;5.80;99.90;;;;;;5010248;28;20197;-79
2022/04/05 04:25:53;;;;;;;13.17;10.70;;;5.80;99.90;;;;;;5006498;28;20720;-78
2022/04/05 04:28:22;;;;;;;12.80;11.60;;;5.80;99.90;;;;;;4997448;28;20622;-76
2022/04/05 04:30:49;;;;;;;12.00;10.93;;;5.80;99.90;;;;;;5006705;28;20189;-77
2022/04/05 04:33:16;;;;;;;12.27;11.07;;;5.80;99.90;;;;;;5005992;28;20231;-77
2022/04/05 04:35:45;;;;;;;12.50;11.20;;;5.80;99.90;;;;;;5001746;28;20283;-77
2022/04/05 04:38:12;;;;;;;11.27;10.37;;;5.80;99.90;;;;;;5000659;28;20194;-78
2022/04/05 04:40:39;;;;;;;11.47;10.47;;;5.90;99.90;;;;;;5006194;28;20188;-80
2022/04/05 04:43:06;;;;;;;12.60;11.43;;;5.80;99.90;;;;;;5004991;28;20201;-77
2022/04/05 04:45:36;;;;;;;11.93;10.93;;;5.90;99.90;;;;;;5004444;28;20275;-77
2022/04/05 04:48:03;;;;;;;11.80;10.70;;;5.80;99.90;;;;;;5002005;28;20609;-77
2022/04/05 04:50:29;;;;;;;11.77;10.67;;;5.90;99.90;;;;;;5002250;28;20412;-77
2022/04/05 04:52:56;;;;;;;11.63;10.53;;;5.90;99.90;;;;;;5002991;28;20200;-78
2022/04/05 04:55:24;;;;;;;12.13;10.93;;;5.90;99.90;;;;;;4998711;28;20279;-77
2022/04/05 04:57:51;;;;;;;12.10;11.03;;;5.80;99.90;;;;;;5004943;28;20215;-77
2022/04/05 05:00:18;;;;;;;12.80;11.60;;;5.80;99.90;;;;;;5001121;28;20667;-77
2022/04/05 05:02:48;;;;;;;12.10;11.10;;;5.80;99.90;;;;;;5004100;28;20193;-76
2022/04/05 05:05:17;;;;;;;12.70;11.60;;;5.80;99.90;;;;;;5001944;28;20225;-77
2022/04/05 05:07:44;;;;;;;11.37;10.37;;;5.80;99.90;;;;;;5004156;28;20260;-74
2022/04/05 05:10:11;;;;;;;12.47;11.27;;;5.80;99.90;;;;;;5005511;28;20197;-75
2022/04/05 05:12:38;;;;;;;12.37;11.27;;;5.80;99.90;;;;;;5000669;28;20552;-77
2022/04/05 05:15:09;;;;;;;11.87;10.87;;;5.80;99.90;;;;;;5000175;28;20276;-76
2022/04/05 05:17:36;;;;;;;12.77;11.57;;;5.80;99.90;;;;;;5003839;28;20308;-77
2022/04/05 05:20:05;;;;;;;11.97;10.97;;;5.80;99.90;;;;;;5001414;28;20205;-77
2022/04/05 05:22:32;;;;;;;11.93;10.80;;;5.80;99.90;;;;;;5002725;28;20209;-75
2022/04/05 05:24:58;;;;;;;11.67;10.63;;;5.90;99.90;;;;;;5000906;28;20208;-77
2022/04/05 05:27:25;;;;;;;11.93;10.77;;;5.90;99.90;;;;;;5002225;28;20224;-77
2022/04/05 05:29:52;;;;;;;12.30;11.00;;;5.90;99.90;;;;;;5002170;28;20251;-77
2022/04/05 05:32:19;;;;;;;11.87;10.77;;;6.00;99.90;;;;;;5000201;28;20205;-74
2022/04/05 05:34:46;;;;;;;11.87;10.87;;;6.00;99.90;;;;;;5003201;28;20266;-76
2022/04/05 05:37:14;;;;;;;12.70;11.40;;;6.00;99.90;;;;;;5002419;28;20205;-77
2022/04/05 05:39:41;;;;;;;10.57;9.67;;;6.00;99.90;;;;;;5001706;28;20215;-75
2022/04/05 05:42:09;;;;;;;13.10;11.80;;;6.00;99.90;;;;;;5002237;28;20197;-75
2022/04/05 05:44:36;;;;;;;11.60;10.60;;;6.00;99.90;;;;;;4997687;28;20224;-75
2022/04/05 05:47:05;;;;;;;10.80;9.83;;;6.10;99.90;;;;;;5004791;28;20243;-75
2022/04/05 05:49:32;;;;;;;11.27;10.20;;;6.10;99.90;;;;;;5000492;28;20276;-76
2022/04/05 05:51:59;;;;;;;11.20;10.20;;;6.10;99.90;;;;;;4999267;28;20209;-76
2022/04/05 05:54:27;;;;;;;12.27;11.00;;;6.20;99.90;;;;;;5003868;28;20616;-76
2022/04/05 05:56:54;;;;;;;12.40;11.17;;;6.20;99.90;;;;;;4996231;28;20217;-76
2022/04/05 05:59:22;;;;;;;10.47;9.70;;;6.30;99.90;;;;;;5001656;28;20200;-77
2022/04/05 06:01:49;;;;;;;11.10;10.00;;;6.30;99.90;;;;;;4999741;28;20677;-77
2022/04/05 06:04:16;;;;;;;11.00;10.00;;;6.30;99.90;;;;;;4996925;28;20225;-77
2022/04/05 06:06:44;;;;;;;11.07;10.17;;;6.30;99.90;;;;;;5004884;28;20255;-78
2022/04/05 06:09:10;;;;;;;11.80;10.70;;;6.30;99.90;;;;;;5000993;28;20196;-75
2022/04/05 06:11:39;;;;;;;12.53;10.43;;;6.40;99.90;;;;;;4993502;28;20198;-75
2022/04/05 06:14:05;;;;;;;11.57;10.47;;;6.30;99.90;;;;;;4997578;28;20240;-76
2022/04/05 06:16:32;;;;;;;11.50;10.40;;;6.40;99.90;;;;;;5004678;28;20197;-76
2022/04/05 06:18:59;;;;;;;10.90;10.00;;;6.40;99.90;;;;;;5001421;28;20201;-76
2022/04/05 06:21:26;;;;;;;10.67;9.70;;;6.40;99.90;;;;;;4998318;28;20289;-77
2022/04/05 06:23:53;;;;;;;11.33;10.27;;;6.40;99.90;;;;;;4999057;28;20201;-76
2022/04/05 06:26:20;;;;;;;10.73;9.77;;;6.50;99.90;;;;;;5001757;28;20197;-76
2022/04/05 06:28:49;;;;;;;10.60;9.63;;;6.50;99.90;;;;;;4999114;28;20195;-79
2022/04/05 06:31:16;;;;;;;11.10;10.17;;;6.50;99.90;;;;;;4990514;28;20201;-77
2022/04/05 06:33:42;;;;;;;9.80;8.83;;;6.60;99.90;;;;;;5001968;28;20213;-78
2022/04/05 06:36:09;;;;;;;10.80;9.70;;;6.60;99.90;;;;;;5000639;28;20209;-76
2022/04/05 06:38:36;;;;;;;10.20;9.40;;;6.70;99.90;;;;;;4992703;28;20257;-76
2022/04/05 06:41:03;;;;;;;9.67;8.80;;;6.80;99.90;;;;;;5000990;28;20198;-77
2022/04/05 06:43:30;;;;;;;9.43;8.63;;;6.90;99.90;;;;;;5002795;28;20683;-77
2022/04/05 06:45:58;;;;;;;10.47;9.20;;;7.00;99.90;;;;;;5022099;23;20224;-76
2022/04/05 06:48:25;;;;;;;10.63;9.53;;;7.10;99.90;;;;;;5003523;28;20467;-76
2022/04/05 06:50:53;;;;;;;11.73;9.30;;;7.10;99.90;;;;;;5002476;28;20193;-77
2022/04/05 06:53:20;;;;;;;11.93;8.53;;;7.20;99.90;;;;;;5000075;28;20285;-79
2022/04/05 06:55:47;;;;;;;10.23;9.33;;;7.20;99.90;;;;;;5000465;28;20287;-77
2022/04/05 06:58:14;;;;;;;10.07;9.03;;;7.20;99.90;;;;;;4999622;28;20649;-77
2022/04/05 07:00:41;;;;;;;9.90;9.10;;;7.20;99.90;;;;;;5001755;28;20203;-77
2022/04/05 07:03:09;;;;;;;9.73;8.80;;;7.20;99.90;;;;;;4992956;28;20709;-77
2022/04/05 07:05:36;;;;;;;10.23;9.23;;;7.20;99.90;;;;;;4995065;28;20219;-77
2022/04/05 07:08:03;;;;;;;9.33;8.60;;;7.30;99.90;;;;;;5004299;28;20245;-77
2022/04/05 07:10:30;;;;;;;9.53;8.63;;;7.40;99.90;;;;;;4999625;28;20299;-77
2022/04/05 07:12:57;;;;;;;9.70;8.73;;;7.50;99.90;;;;;;4999787;28;20196;-77
2022/04/05 07:15:24;;;;;;;9.37;8.47;;;7.60;99.90;;;;;;5002586;28;20226;-77
2022/04/05 07:17:51;;;;;;;8.03;6.33;;;7.60;99.90;;;;;;5001512;28;20234;-77
2022/04/05 07:20:19;;;;;;;7.83;7.03;;;7.70;99.90;;;;;;5002780;28;20190;-77
2022/04/05 07:22:48;;;;;;;6.63;5.57;;;7.70;99.90;;;;;;5002683;28;20673;-77
2022/04/05 07:25:16;;;;;;;5.93;5.13;;;7.80;99.90;;;;;;4999977;28;20231;-77
2022/04/05 07:27:44;;;;;;;9.20;8.23;;;7.90;99.90;;;;;;5001606;28;20202;-77
2022/04/05 07:30:11;;;;;;;10.10;9.30;;;7.90;99.90;;;;;;5002785;28;20234;-77
2022/04/05 07:32:38;;;;;;;9.13;6.80;;;8.00;99.90;;;;;;4989396;28;20199;-77
2022/04/05 07:35:07;;;;;;;7.20;5.47;;;8.10;99.90;;;;;;5003034;28;20726;-77
2022/04/05 07:37:35;;;;;;;6.97;6.23;;;8.10;99.90;;;;;;4999070;28;20215;-78
2022/04/05 07:40:03;;;;;;;8.30;6.00;;;8.20;99.90;;;;;;5000942;28;20200;-77
2022/04/05 07:42:30;;;;;;;7.60;5.70;;;8.30;99.90;;;;;;5002099;28;20639;-77
2022/04/05 07:44:57;;;;;;;11.93;10.93;;;8.30;99.90;;;;;;4999606;28;20232;-77
2022/04/05 07:47:24;;;;;;;10.40;9.13;;;8.40;99.90;;;;;;5002094;28;20193;-77
2022/04/05 07:49:51;;;;;;;9.43;8.63;;;8.40;99.90;;;;;;4998893;28;20231;-78
2022/04/05 07:52:18;;;;;;;10.87;9.30;;;8.40;99.90;;;;;;5002868;28;20259;-76
2022/04/05 07:54:46;;;;;;;10.30;9.50;;;8.40;99.90;;;;;;5002007;28;20220;-76
2022/04/05 07:57:13;;;;;;;9.60;8.57;;;8.40;99.90;;;;;;4999955;28;20223;-76
2022/04/05 07:59:40;;;;;;;9.70;8.90;;;8.40;99.90;;;;;;5001711;28;20226;-75
2022/04/05 08:02:07;;;;;;;9.50;8.60;;;8.50;99.90;;;;;;5001969;28;20200;-76
2022/04/05 08:04:34;;;;;;;10.10;9.20;;;8.70;99.90;;;;;;5001991;28;20712;-75
2022/04/05 08:07:01;;;;;;;9.03;8.33;;;8.90;99.90;;;;;;4999210;28;20592;-76
2022/04/05 08:09:28;;;;;;;9.83;9.03;;;9.10;99.90;;;;;;5003195;28;20231;-76
2022/04/05 08:11:56;;;;;;;5.60;4.70;;;9.20;99.90;;;;;;5003376;28;20669;-75
2022/04/05 08:14:27;;;;;;;6.07;4.27;;;9.30;99.90;;;;;;5006491;28;20275;-78
2022/04/05 08:16:55;;;;;;;9.73;8.83;;;9.40;99.90;;;;;;5001334;28;20204;-76
2022/04/05 08:19:22;;;;;;;9.13;8.33;;;9.40;99.90;;;;;;5005121;28;20263;-76
2022/04/05 08:21:49;;;;;;;8.43;7.60;;;9.40;99.90;;;;;;4995994;28;20295;-76
2022/04/05 08:24:17;;;;;;;9.60;7.23;;;9.30;99.90;;;;;;5009578;28;20210;-76
2022/04/05 08:26:44;;;;;;;6.83;4.87;;;9.20;99.90;;;;;;4997895;28;20579;-78
2022/04/05 08:29:12;;;;;;;8.87;4.20;;;9.20;99.90;;;;;;5010653;28;20197;-76
2022/04/05 08:31:39;;;;;;;8.40;4.93;;;9.20;99.90;;;;;;5004019;28;20204;-78
2022/04/05 08:34:06;;;;;;;6.60;4.40;;;9.20;99.90;;;;;;5003807;28;20203;-76
2022/04/05 08:36:33;;;;;;;8.20;5.13;;;9.20;99.90;;;;;;5005839;28;20543;-78
2022/04/05 08:39:00;;;;;;;5.70;4.30;;;9.20;99.90;;;;;;5005569;28;20230;-76
2022/04/05 08:41:29;;;;;;;4.37;3.97;;;9.20;99.90;;;;;;5001417;28;20696;-76
2022/04/05 08:43:57;;;;;;;5.20;4.10;;;9.20;99.90;;;;;;5001686;28;20204;-76
2022/04/05 08:46:26;;;;;;;9.43;8.13;;;9.10;99.90;;;;;;5005352;28;20690;-77
2022/04/05 08:48:54;;;;;;;11.67;10.60;;;9.10;99.90;;;;;;4993731;28;20201;-76
2022/04/05 08:51:21;;;;;;;11.27;10.33;;;9.10;99.90;;;;;;5001454;28;20205;-76
2022/04/05 08:53:48;;;;;;;10.60;9.50;;;9.20;99.90;;;;;;5002027;28;20292;-77
2022/04/05 08:56:16;;;;;;;7.33;4.73;;;9.20;99.90;;;;;;5007176;28;20767;-77
2022/04/05 08:58:42;;;;;;;6.87;4.53;;;9.20;99.90;;;;;;5002494;28;20665;-76
2022/04/05 09:01:09;;;;;;;8.07;7.17;;;9.20;99.90;;;;;;4997226;28;20685;-76
2022/04/05 09:03:38;;;;;;;10.63;9.73;;;9.20;99.90;;;;;;5003370;28;20224;-77
2022/04/05 09:06:24;;;;;;;5.80;4.70;;;9.20;99.90;;;;;;5000416;28;20213;-77
2022/04/05 09:08:51;;;;;;;8.00;7.30;;;9.40;99.90;;;;;;4996518;28;20193;-76
2022/04/05 09:11:20;;;;;;;5.87;4.70;;;9.40;99.90;;;;;;5003101;28;20204;-76
2022/04/05 09:13:59;;;;;;;8.40;7.60;;;9.40;99.90;;;;;;5001785;28;20276;-76
2022/04/05 09:16:31;;;;;;;7.73;5.63;;;9.50;99.90;;;;;;5004731;28;20630;-76
2022/04/05 09:19:00;;;;;;;6.23;4.40;;;9.50;99.90;;;;;;5002775;28;20209;-77
2022/04/05 09:21:27;;;;;;;9.93;9.13;;;9.60;99.90;;;;;;4998609;28;20208;-76
2022/04/05 09:24:07;;;;;;;10.63;9.70;;;9.70;99.90;;;;;;5001969;28;20228;-76
2022/04/05 09:26:43;;;;;;;6.80;6.20;;;9.80;99.90;;;;;;4998925;28;20192;-77
2022/04/05 09:29:10;;;;;;;8.77;8.00;;;9.80;99.90;;;;;;4998179;28;20589;-76
2022/04/05 09:31:44;;;;;;;9.17;5.33;;;9.90;99.90;;;;;;4995755;28;20193;-77
2022/04/05 09:34:13;;;;;;;10.73;9.77;;;10.00;99.90;;;;;;5001708;28;20260;-77
2022/04/05 09:36:42;;;;;;;10.17;9.27;;;10.20;99.90;;;;;;5005414;28;20243;-77
2022/04/05 09:39:18;;;;;;;5.57;4.70;;;10.40;99.90;;;;;;5001507;28;20217;-77
2022/04/05 09:41:45;;;;;;;10.30;9.50;;;10.60;99.90;;;;;;5000048;28;20609;-76
2022/04/05 09:44:12;;;;;;;10.10;9.30;;;10.50;99.90;;;;;;5004646;28;20673;-76
2022/04/05 09:46:42;;;;;;;10.23;9.37;;;10.60;99.90;;;;;;4998578;28;20661;-76
2022/04/05 09:49:12;;;;;;;8.23;7.10;;;10.60;99.90;;;;;;4997873;28;20713;-76
2022/04/05 09:51:43;;;;;;;7.83;5.17;;;10.70;99.90;;;;;;4992105;28;20748;-76
2022/04/05 09:54:22;;;;;;;9.50;8.63;;;10.70;99.90;;;;;;4999293;28;20192;-77
2022/04/05 09:56:50;;;;;;;9.70;8.90;;;10.80;99.90;;;;;;4990545;28;20205;-76
2022/04/05 09:59:18;;;;;;;10.10;9.30;;;10.90;99.90;;;;;;4990403;28;20774;-76
2022/04/05 10:01:47;;;;;;;10.03;9.23;;;10.80;99.90;;;;;;4983351;28;20196;-76
2022/04/05 10:04:15;;;;;;;10.40;9.50;;;10.80;99.90;;;;;;4997552;28;20202;-77
2022/04/05 10:06:47;;;;;;;10.47;9.67;;;10.80;99.90;;;;;;5003738;28;20226;-76
2022/04/05 10:09:15;;;;;;;10.57;9.67;;;10.80;99.90;;;;;;5005827;28;20253;-76
2022/04/05 10:11:43;;;;;;;10.40;9.63;;;10.70;99.90;;;;;;5001281;28;20202;-76
2022/04/05 10:14:12;;;;;;;9.73;8.90;;;10.70;99.90;;;;;;4998762;28;20214;-76
2022/04/05 10:16:39;;;;;;;10.67;9.77;;;10.80;99.90;;;;;;5007219;28;20194;-78
2022/04/05 10:19:09;;;;;;;10.50;9.60;;;10.90;99.90;;;;;;5000807;28;20281;-78
2022/04/05 10:21:38;;;;;;;11.03;10.23;;;10.90;99.90;;;;;;5001354;28;20300;-78
2022/04/05 10:24:08;;;;;;;10.03;9.33;;;10.90;99.90;;;;;;5001543;28;20197;-76
2022/04/05 10:26:37;;;;;;;4.63;3.70;;;11.00;99.90;;;;;;4997074;28;20692;-76
2022/04/05 10:29:06;;;;;;;5.23;4.00;;;11.20;99.90;;;;;;5003414;28;20198;-76
2022/04/05 10:31:43;;;;;;;5.43;4.67;;;11.30;99.90;;;;;;5000452;28;20677;-76
2022/04/05 10:34:17;;;;;;;9.37;8.60;;;11.30;99.90;;;;;;5000528;28;20201;-76
2022/04/05 10:37:05;;;;;;;5.37;4.03;;;11.20;99.90;;;;;;4994064;28;20195;-76
2022/04/05 10:39:33;;;;;;;9.13;8.53;;;11.10;99.90;;;;;;5002427;28;20233;-76
2022/04/05 10:42:21;;;;;;;9.00;8.30;;;11.10;99.90;;;;;;4999481;28;20195;-76
2022/04/05 10:44:52;;;;;;;9.03;8.33;;;11.00;99.90;;;;;;4994320;28;20217;-76
2022/04/05 10:47:19;;;;;;;9.30;8.50;;;11.20;99.90;;;;;;4999907;28;20202;-76
2022/04/05 10:49:48;;;;;;;8.47;5.90;;;11.20;99.90;;;;;;4998085;28;20208;-76
2022/04/05 10:52:16;;;;;;;9.13;8.33;;;11.30;99.90;;;;;;5004672;28;20197;-76
2022/04/05 10:54:46;;;;;;;5.77;4.40;;;11.30;99.90;;;;;;5001349;28;20229;-76
2022/04/05 10:57:27;;;;;;;9.73;8.83;;;11.40;99.90;;;;;;4998785;28;20516;-76
2022/04/05 10:59:59;;;;;;;9.40;8.70;;;11.50;99.90;;;;;;5000639;28;20245;-76
2022/04/05 11:02:32;;;;;;;8.83;8.10;;;11.40;99.90;;;;;;5001811;28;20238;-76
2022/04/05 11:05:19;;;;;;;9.30;8.47;;;11.20;99.90;;;;;;5000708;28;20246;-77
2022/04/05 11:08:18;;;;;;;9.93;9.03;;;11.20;99.90;;;;;;4993000;28;20218;-77
2022/04/05 11:10:56;;;;;;;9.47;8.67;;;11.30;99.90;;;;;;4940365;29;20522;-77
2022/04/05 11:13:34;;;;;;;9.50;8.73;;;11.40;99.90;;;;;;4980866;28;20667;-76
2022/04/05 11:16:02;;;;;;;9.30;8.40;;;11.40;99.90;;;;;;5001035;28;20690;-76
2022/04/05 11:18:33;;;;;;;4.93;3.60;;;11.40;99.90;;;;;;5003783;28;20416;-76
2022/04/05 11:21:00;;;;;;;3.97;3.43;;;11.30;99.90;;;;;;4999204;28;20241;-76
2022/04/05 11:23:48;;;;;;;4.70;3.67;;;11.30;99.90;;;;;;4995652;28;20577;-76
2022/04/05 11:26:36;;;;;;;5.83;5.33;;;11.20;99.90;;;;;;4995167;28;20281;-76
2022/04/05 11:29:18;;;;;;;9.30;8.10;;;11.20;99.90;;;;;;4995478;28;20245;-77
2022/04/05 11:31:44;;;;;;;4.07;3.37;;;11.10;99.90;;;;;;4991559;28;20256;-76
2022/04/05 11:34:34;;;;;;;5.73;3.57;;;11.10;99.90;;;;;;5000426;28;20194;-76
2022/04/05 11:37:01;;;;;;;5.80;3.67;;;11.10;99.90;;;;;;4999182;28;20227;-77
2022/04/05 11:39:28;;;;;;;5.93;3.20;;;11.10;99.90;;;;;;5002795;28;20724;-77
2022/04/05 11:42:00;;;;;;;6.20;3.33;;;11.20;99.90;;;;;;4999635;28;20201;-77
2022/04/05 11:44:27;;;;;;;4.03;3.00;;;11.20;99.90;;;;;;4996595;28;20198;-77
2022/04/05 11:46:57;;;;;;;3.50;3.07;;;11.20;99.90;;;;;;5013508;28;20201;-79
2022/04/05 11:49:23;;;;;;;4.20;3.57;;;11.20;99.90;;;;;;5001825;28;20197;-76
2022/04/05 11:51:51;;;;;;;4.33;3.63;;;11.10;99.90;;;;;;5000308;28;20196;-76
2022/04/05 11:54:22;;;;;;;4.77;3.40;;;11.00;99.90;;;;;;5001357;28;20252;-77
2022/04/05 11:56:49;;;;;;;4.63;3.33;;;11.00;99.90;;;;;;4997543;28;20324;-77
2022/04/05 11:59:18;;;;;;;4.63;3.50;;;11.10;99.90;;;;;;5002696;28;20210;-77
2022/04/05 12:01:49;;;;;;;5.27;3.90;;;11.00;99.90;;;;;;4997808;28;20602;-77
2022/04/05 12:04:18;;;;;;;4.00;3.50;;;11.00;99.90;;;;;;4997039;28;20279;-78
2022/04/05 12:06:46;;;;;;;3.97;3.27;;;10.90;99.90;;;;;;5004125;28;20260;-78
2022/04/05 12:09:16;;;;;;;4.83;3.30;;;10.90;99.90;;;;;;5000609;28;20281;-78
2022/04/05 12:11:46;;;;;;;4.83;3.47;;;10.90;99.90;;;;;;5001430;28;20197;-78
2022/04/05 12:14:14;;;;;;;4.70;3.43;;;10.90;99.90;;;;;;5001302;28;20198;-78
2022/04/05 12:16:47;;;;;;;6.53;3.77;;;10.90;99.90;;;;;;4999384;28;20193;-78
2022/04/05 12:19:19;;;;;;;5.47;3.60;;;10.90;99.90;;;;;;5001739;28;20214;-78
2022/04/05 12:21:46;;;;;;;4.03;3.33;;;11.00;99.90;;;;;;5004295;28;20196;-78
2022/04/05 12:24:14;;;;;;;5.23;3.90;;;10.90;99.90;;;;;;5001530;28;20202;-78
2022/04/05 12:26:41;;;;;;;5.20;3.63;;;11.00;99.90;;;;;;5004028;28;20289;-78
2022/04/05 12:29:08;;;;;;;6.37;3.40;;;11.10;99.90;;;;;;4996920;28;20609;-78
2022/04/05 12:31:35;;;;;;;5.63;3.93;;;11.20;99.90;;;;;;5000883;28;20277;-79
2022/04/05 12:34:10;;;;;;;5.17;4.70;;;11.30;99.90;;;;;;5007237;28;20197;-78
2022/04/05 12:36:38;;;;;;;5.17;4.67;;;11.50;99.90;;;;;;4990025;28;20220;-78
2022/04/05 12:39:06;;;;;;;3.53;3.23;;;11.60;99.90;;;;;;4997503;28;20229;-78
2022/04/05 12:41:39;;;;;;;9.17;8.27;;;11.70;99.90;;;;;;5000149;28;20204;-78
2022/04/05 12:44:11;;;;;;;8.60;7.80;;;11.70;99.90;;;;;;5001958;28;20684;-77
2022/04/05 12:46:40;;;;;;;8.67;7.97;;;11.80;99.90;;;;;;5007434;23;20231;-76
2022/04/05 12:49:24;;;;;;;8.37;7.70;;;11.90;99.90;;;;;;4982023;28;20246;-75
2022/04/05 12:51:52;;;;;;;8.30;7.70;;;11.90;99.90;;;;;;4980409;28;20306;-76
2022/04/05 12:54:31;;;;;;;8.17;7.43;;;12.00;99.90;;;;;;4985419;28;20549;-76